createdAt,value
2018-09-06T00:01:58.346Z,19.90
2018-09-06T00:04:24.647Z,19.80
2018-09-06T00:06:51.065Z,19.90
2018-09-06T00:09:17.459Z,19.90
2018-09-06T00:11:43.854Z,19.80
2018-09-06T00:14:11.120Z,19.50
2018-09-06T00:16:38.324Z,19.50
2018-09-06T00:19:04.835Z,19.40
2018-09-06T00:21:31.273Z,19.50
2018-09-06T00:23:57.803Z,19.40
2018-09-06T00:26:24.143Z,19.30
2018-09-06T00:28:50.458Z,19.30
2018-09-06T00:31:17.057Z,19.30
2018-09-06T00:33:43.773Z,19.30
2018-09-06T00:36:10.150Z,19.00
2018-09-06T00:38:37.327Z,18.80
2018-09-06T00:41:03.669Z,18.80
2018-09-06T00:43:29.979Z,18.90
2018-09-06T00:45:57.104Z,18.70
2018-09-06T00:48:23.523Z,18.70
2018-09-06T00:50:49.907Z,18.70
2018-09-06T00:53:16.301Z,18.80
2018-09-06T00:55:42.725Z,19.00
2018-09-06T00:58:09.844Z,19.20
2018-09-06T01:00:36.305Z,19.20
2018-09-06T01:03:02.736Z,19.30
2018-09-06T01:05:29.297Z,19.30
2018-09-06T01:07:55.712Z,19.20
2018-09-06T01:10:22.757Z,18.90
2018-09-06T01:12:49.052Z,18.90
2018-09-06T01:15:15.390Z,18.80
2018-09-06T01:17:41.690Z,18.80
2018-09-06T01:20:08.959Z,18.80
2018-09-06T01:22:35.502Z,18.80
2018-09-06T01:25:02.083Z,18.80
2018-09-06T01:27:28.607Z,18.90
2018-09-06T01:29:54.885Z,19.00
2018-09-06T01:32:21.153Z,19.00
2018-09-06T01:34:47.446Z,19.00
2018-09-06T01:37:14.441Z,18.80
2018-09-06T01:39:40.822Z,18.80
2018-09-06T01:42:07.845Z,18.90
2018-09-06T01:44:34.213Z,18.80
2018-09-06T01:47:01.251Z,18.80
2018-09-06T01:49:28.244Z,18.80
2018-09-06T01:51:54.526Z,18.70
2018-09-06T01:54:21.516Z,18.70
2018-09-06T01:56:47.805Z,18.70
2018-09-06T01:59:14.802Z,18.70
2018-09-06T02:01:41.111Z,18.70
2018-09-06T02:04:07.377Z,18.70
2018-09-06T02:06:33.658Z,18.80
2018-09-06T02:08:59.964Z,18.80
2018-09-06T02:11:26.234Z,18.70
2018-09-06T02:13:52.545Z,18.70
2018-09-06T02:16:19.566Z,18.60
2018-09-06T02:18:45.834Z,18.60
2018-09-06T02:21:12.117Z,18.70
2018-09-06T02:23:38.362Z,18.70
2018-09-06T02:26:04.665Z,18.50
2018-09-06T02:28:30.942Z,18.60
2018-09-06T02:30:57.237Z,18.60
2018-09-06T02:33:23.522Z,18.60
2018-09-06T02:35:49.830Z,18.50
2018-09-06T02:38:16.824Z,18.10
2018-09-06T02:40:43.090Z,18.10
2018-09-06T02:43:09.354Z,18.10
2018-09-06T02:45:36.362Z,18.20
2018-09-06T02:48:02.618Z,18.20
2018-09-06T02:50:46.472Z,18.20
2018-09-06T02:53:13.461Z,18.10
2018-09-06T02:55:49.750Z,18.10
2018-09-06T02:58:16.010Z,18.10
2018-09-06T03:00:43.054Z,18.00
2018-09-06T03:03:09.315Z,18.00
2018-09-06T03:05:35.600Z,17.90
2018-09-06T03:08:01.877Z,17.80
2018-09-06T03:10:28.166Z,17.90
2018-09-06T03:12:54.441Z,17.60
2018-09-06T03:15:20.714Z,17.60
2018-09-06T03:17:47.029Z,17.60
2018-09-06T03:20:13.290Z,17.60
2018-09-06T03:22:40.332Z,17.50
2018-09-06T03:25:06.586Z,17.50
2018-09-06T03:27:33.597Z,17.40
2018-09-06T03:29:59.873Z,17.40
2018-09-06T03:32:26.911Z,17.60
2018-09-06T03:34:53.185Z,17.60
2018-09-06T03:37:19.490Z,17.80
2018-09-06T03:39:46.542Z,18.00
2018-09-06T03:42:12.794Z,17.90
2018-09-06T03:44:39.084Z,18.00
2018-09-06T03:47:06.089Z,18.20
2018-09-06T03:49:32.344Z,18.20
2018-09-06T03:51:58.650Z,18.30
2018-09-06T03:54:24.889Z,18.30
2018-09-06T03:56:51.173Z,18.30
2018-09-06T03:59:18.171Z,18.40
2018-09-06T04:01:44.408Z,18.40
2018-09-06T04:04:10.732Z,18.40
2018-09-06T04:06:36.979Z,18.40
2018-09-06T04:09:03.997Z,18.40
2018-09-06T04:11:30.278Z,18.40
2018-09-06T04:13:57.326Z,18.60
2018-09-06T04:16:24.337Z,18.50
2018-09-06T04:18:50.616Z,18.50
2018-09-06T04:21:16.894Z,18.50
2018-09-06T04:23:43.181Z,18.50
2018-09-06T04:26:09.946Z,18.20
2018-09-06T04:28:36.255Z,18.00
2018-09-06T04:31:02.638Z,17.80
2018-09-06T04:33:28.913Z,17.70
2018-09-06T04:35:55.218Z,17.50
2018-09-06T04:38:30.113Z,17.50
2018-09-06T04:41:03.029Z,17.50
2018-09-06T04:43:29.317Z,17.60
2018-09-06T04:45:55.578Z,17.80
2018-09-06T04:48:23.397Z,17.90
2018-09-06T04:50:49.646Z,18.00
2018-09-06T04:53:15.914Z,18.20
2018-09-06T04:55:42.166Z,18.20
2018-09-06T04:58:09.149Z,18.20
2018-09-06T05:00:35.442Z,18.20
2018-09-06T05:03:02.715Z,18.00
2018-09-06T05:05:29.721Z,18.10
2018-09-06T05:07:56.005Z,18.10
2018-09-06T05:10:22.249Z,18.20
2018-09-06T05:15:21.769Z,18.30
2018-09-06T05:17:50.299Z,18.40
2018-09-06T05:20:16.594Z,18.30
2018-09-06T05:22:42.857Z,18.00
2018-09-06T05:25:09.134Z,17.90
2018-09-06T05:27:35.410Z,17.80
2018-09-06T05:30:01.693Z,17.80
2018-09-06T05:32:27.993Z,17.80
2018-09-06T05:34:54.981Z,18.10
2018-09-06T05:37:22.144Z,18.10
2018-09-06T05:39:49.220Z,18.20
2018-09-06T05:42:15.870Z,18.20
2018-09-06T05:44:42.377Z,18.40
2018-09-06T05:47:11.158Z,18.60
2018-09-06T05:49:38.245Z,18.90
2018-09-06T05:52:06.009Z,18.80
2018-09-06T05:54:42.094Z,18.90
2018-09-06T05:57:09.382Z,19.00
2018-09-06T05:59:37.304Z,18.80
2018-09-06T06:02:04.371Z,18.60
2018-09-06T06:04:32.120Z,18.70
2018-09-06T06:06:58.427Z,18.60
2018-09-06T06:09:24.705Z,18.50
2018-09-06T06:11:51.757Z,18.70
2018-09-06T06:14:17.996Z,18.70
2018-09-06T06:16:45.017Z,18.90
2018-09-06T06:19:11.298Z,18.90
2018-09-06T06:21:37.585Z,19.00
2018-09-06T06:24:03.870Z,19.30
2018-09-06T06:26:30.145Z,19.60
2018-09-06T06:29:04.198Z,20.00
2018-09-06T06:31:30.607Z,20.00
2018-09-06T06:33:56.909Z,20.10
2018-09-06T06:36:23.189Z,20.20
2018-09-06T06:38:49.478Z,20.40
2018-09-06T06:41:15.726Z,20.60
2018-09-06T06:43:42.742Z,20.80
2018-09-06T06:46:09.045Z,20.80
2018-09-06T06:48:35.313Z,20.90
2018-09-06T06:51:01.654Z,20.90
2018-09-06T06:53:28.693Z,21.10
2018-09-06T06:55:54.993Z,21.10
2018-09-06T06:58:21.309Z,21.30
2018-09-06T07:00:47.666Z,21.50
2018-09-06T07:03:13.869Z,21.80
2018-09-06T07:05:40.189Z,21.90
2018-09-06T07:08:06.449Z,21.70
2018-09-06T07:10:32.695Z,21.40
2018-09-06T07:12:58.954Z,21.70
2018-09-06T07:15:25.926Z,22.10
2018-09-06T07:17:52.206Z,22.10
2018-09-06T07:20:18.448Z,22.20
2018-09-06T07:22:44.698Z,22.50
2018-09-06T07:25:11.713Z,21.90
2018-09-06T07:27:37.960Z,21.90
2018-09-06T07:30:04.248Z,22.10
2018-09-06T07:32:30.499Z,22.00
2018-09-06T07:34:56.803Z,22.10
2018-09-06T07:37:23.033Z,22.50
2018-09-06T07:39:49.297Z,22.60
2018-09-06T07:42:15.549Z,22.80
2018-09-06T07:44:42.641Z,23.30
2018-09-06T07:47:08.876Z,23.40
2018-09-06T07:49:35.169Z,23.50
2018-09-06T07:52:02.186Z,23.40
2018-09-06T07:54:28.528Z,23.40
2018-09-06T07:56:54.760Z,23.60
2018-09-06T07:59:21.042Z,23.40
2018-09-06T08:01:47.280Z,23.60
2018-09-06T08:04:13.510Z,24.00
2018-09-06T08:06:39.837Z,24.30
2018-09-06T08:09:06.088Z,24.50
2018-09-06T08:11:32.338Z,25.00
2018-09-06T08:13:58.779Z,24.90
2018-09-06T08:16:25.051Z,25.80
2018-09-06T08:18:51.350Z,27.30
2018-09-06T08:21:21.130Z,27.30
2018-09-06T08:23:47.394Z,27.60
2018-09-06T08:26:14.484Z,28.00
2018-09-06T08:28:42.079Z,28.00
2018-09-06T08:31:08.500Z,27.10
2018-09-06T08:33:35.030Z,28.00
2018-09-06T08:36:01.344Z,28.60
2018-09-06T08:38:28.098Z,28.90
2018-09-06T08:40:54.374Z,29.30
2018-09-06T08:43:20.687Z,29.40
2018-09-06T08:45:47.707Z,30.20
2018-09-06T08:48:14.052Z,30.20
2018-09-06T08:50:40.589Z,30.50
2018-09-06T08:53:08.107Z,30.70
2018-09-06T08:55:34.425Z,30.70
2018-09-06T08:58:01.230Z,30.30
2018-09-06T09:00:27.699Z,29.90
2018-09-06T09:02:54.112Z,29.90
2018-09-06T09:05:20.332Z,30.00
2018-09-06T09:07:47.305Z,29.90
2018-09-06T09:10:14.530Z,29.60
2018-09-06T09:12:42.664Z,30.00
2018-09-06T09:17:48.709Z,28.80
2018-09-06T09:20:17.036Z,28.40
2018-09-06T09:22:44.322Z,28.40
2018-09-06T09:25:13.598Z,28.30
2018-09-06T09:27:42.519Z,28.00
2018-09-06T09:30:10.019Z,27.80
2018-09-06T09:32:37.697Z,27.50
2018-09-06T09:35:10.933Z,26.90
2018-09-06T09:37:37.285Z,26.80
2018-09-06T09:40:04.551Z,26.60
2018-09-06T09:42:31.814Z,26.40
2018-09-06T09:45:01.527Z,26.20
2018-09-06T09:50:00.012Z,25.70
2018-09-06T09:52:26.406Z,25.40
2018-09-06T09:54:53.010Z,25.10
2018-09-06T09:57:20.171Z,24.80
2018-09-06T09:59:46.803Z,24.60
2018-09-06T10:02:13.371Z,24.40
2018-09-06T10:04:43.814Z,24.30
2018-09-06T10:07:10.375Z,24.20
2018-09-06T10:09:36.986Z,24.00
2018-09-06T10:12:08.228Z,24.00
2018-09-06T10:14:37.557Z,23.90
2018-09-06T10:17:04.475Z,23.80
2018-09-06T10:19:50.808Z,23.80
2018-09-06T10:22:19.132Z,23.70
2018-09-06T10:24:46.679Z,23.70
2018-09-06T10:27:13.023Z,23.70
2018-09-06T10:29:39.342Z,23.70
2018-09-06T10:32:05.671Z,23.70
2018-09-06T10:34:32.003Z,23.70
2018-09-06T10:36:58.311Z,23.70
2018-09-06T10:39:24.785Z,23.60
2018-09-06T10:41:50.994Z,23.40
2018-09-06T10:44:17.316Z,23.40
2018-09-06T10:46:43.606Z,23.30
2018-09-06T10:49:09.920Z,23.50
2018-09-06T10:51:36.208Z,23.80
2018-09-06T10:54:03.294Z,24.00
2018-09-06T10:56:31.268Z,24.20
2018-09-06T10:59:01.846Z,24.20
2018-09-06T11:01:28.917Z,24.30
2018-09-06T11:03:55.893Z,24.30
2018-09-06T11:06:24.264Z,24.30
2018-09-06T11:08:50.854Z,24.40
2018-09-06T11:11:17.820Z,24.20
2018-09-06T11:13:44.741Z,24.20
2018-09-06T11:16:11.541Z,24.20
2018-09-06T11:18:38.733Z,24.20
2018-09-06T11:21:05.916Z,24.20
2018-09-06T11:23:32.238Z,24.20
2018-09-06T11:25:58.529Z,24.20
2018-09-06T11:28:25.381Z,24.10
2018-09-06T11:30:51.734Z,24.20
2018-09-06T11:33:21.303Z,24.30
2018-09-06T11:35:50.377Z,24.40
2018-09-06T11:38:16.695Z,24.50
2018-09-06T11:40:43.742Z,24.70
2018-09-06T11:43:10.963Z,24.90
2018-09-06T11:45:37.343Z,25.00
2018-09-06T11:48:04.621Z,25.20
2018-09-06T11:50:31.066Z,25.50
2018-09-06T11:52:57.560Z,25.70
2018-09-06T11:55:23.882Z,25.80
2018-09-06T11:57:50.274Z,26.00
2018-09-06T12:00:18.614Z,26.20
2018-09-06T12:02:45.578Z,26.10
2018-09-06T12:05:12.260Z,26.40
2018-09-06T12:07:41.024Z,26.60
2018-09-06T12:10:11.224Z,26.90
2018-09-06T12:12:38.955Z,26.90
2018-09-06T12:15:06.892Z,27.40
2018-09-06T12:17:35.684Z,27.90
2018-09-06T12:20:09.581Z,28.30
2018-09-06T12:22:43.190Z,28.50
2018-09-06T12:30:48.775Z,29.70
2018-09-06T12:33:26.433Z,29.50
2018-09-06T12:35:56.882Z,29.40
2018-09-06T12:38:27.038Z,29.20
2018-09-06T12:40:56.313Z,29.10
2018-09-06T12:43:28.745Z,29.10
2018-09-06T12:46:02.037Z,29.00
2018-09-06T12:48:30.052Z,29.00
2018-09-06T12:50:57.277Z,29.00
2018-09-06T12:53:24.409Z,29.30
2018-09-06T12:55:50.770Z,29.30
2018-09-06T12:58:20.069Z,29.40
2018-09-06T13:00:47.262Z,29.60
2018-09-06T13:03:15.609Z,29.60
2018-09-06T13:05:42.022Z,29.40
2018-09-06T13:08:08.929Z,29.30
2018-09-06T13:10:37.015Z,29.20
2018-09-06T13:13:07.634Z,29.30
2018-09-06T13:15:34.341Z,29.30
2018-09-06T13:18:01.826Z,29.60
2018-09-06T13:20:30.530Z,29.60
2018-09-06T13:22:57.713Z,29.60
2018-09-06T13:25:25.257Z,29.80
2018-09-06T13:27:51.564Z,29.80
2018-09-06T13:30:19.357Z,29.80
2018-09-06T13:32:46.189Z,29.70
2018-09-06T13:35:18.741Z,29.60
2018-09-06T13:37:48.739Z,29.50
2018-09-06T13:40:16.107Z,29.60
2018-09-06T13:42:52.508Z,29.50
2018-09-06T13:45:20.499Z,29.30
2018-09-06T13:47:48.767Z,29.20
2018-09-06T13:50:16.673Z,29.20
2018-09-06T13:52:43.092Z,28.90
2018-09-06T13:55:09.420Z,28.80
2018-09-06T13:57:35.671Z,28.50
2018-09-06T14:00:02.072Z,28.20
2018-09-06T14:02:28.346Z,28.10
2018-09-06T14:04:54.645Z,28.00
2018-09-06T14:07:20.919Z,27.90
2018-09-06T14:09:47.255Z,27.80
2018-09-06T14:12:14.301Z,27.50
2018-09-06T14:14:41.366Z,27.40
2018-09-06T14:17:07.631Z,27.40
2018-09-06T14:19:33.934Z,27.20
2018-09-06T14:22:01.835Z,27.10
2018-09-06T14:24:28.204Z,27.00
2018-09-06T14:26:54.515Z,27.00
2018-09-06T14:29:20.786Z,27.00
2018-09-06T14:31:47.793Z,26.90
2018-09-06T14:34:14.130Z,26.80
2018-09-06T14:36:40.411Z,26.70
2018-09-06T14:39:06.841Z,26.70
2018-09-06T14:41:33.088Z,26.60
2018-09-06T14:44:00.195Z,26.50
2018-09-06T14:46:27.526Z,26.50
2018-09-06T14:48:54.928Z,26.40
2018-09-06T14:51:21.201Z,26.40
2018-09-06T14:53:47.494Z,26.30
2018-09-06T14:56:14.550Z,26.30
2018-09-06T14:58:42.416Z,26.20
2018-09-06T15:01:13.209Z,26.20
2018-09-06T15:03:39.539Z,26.20
2018-09-06T15:06:11.658Z,26.20
2018-09-06T15:08:38.959Z,26.20
2018-09-06T15:11:06.730Z,26.30
2018-09-06T15:13:34.188Z,26.50
2018-09-06T15:16:00.660Z,26.60
2018-09-06T15:18:27.290Z,26.90
2018-09-06T15:20:54.946Z,27.10
2018-09-06T15:23:22.498Z,27.00
2018-09-06T15:25:49.647Z,27.00
2018-09-06T15:28:16.620Z,26.90
2018-09-06T15:30:43.599Z,26.80
2018-09-06T15:33:10.102Z,26.80
2018-09-06T15:35:36.399Z,26.80
2018-09-06T15:38:02.956Z,26.60
2018-09-06T15:40:29.283Z,26.70
2018-09-06T15:42:57.173Z,26.70
2018-09-06T15:45:23.531Z,26.70
2018-09-06T15:47:51.067Z,26.70
2018-09-06T15:50:18.562Z,26.80
2018-09-06T15:52:45.284Z,26.80
2018-09-06T15:55:11.660Z,26.80
2018-09-06T15:57:38.511Z,26.70
2018-09-06T16:00:04.919Z,26.70
2018-09-06T16:02:31.504Z,26.70
2018-09-06T16:04:57.928Z,26.80
2018-09-06T16:07:24.985Z,26.50
2018-09-06T16:09:51.349Z,26.60
2018-09-06T16:12:17.660Z,26.50
2018-09-06T16:14:44.977Z,26.30
2018-09-06T16:17:12.316Z,26.20
2018-09-06T16:19:38.683Z,26.20
2018-09-06T16:22:05.034Z,26.20
2018-09-06T16:24:31.423Z,26.10
2018-09-06T16:26:57.844Z,26.10
2018-09-06T16:29:25.235Z,26.00
2018-09-06T16:31:51.575Z,25.90
2018-09-06T16:34:17.926Z,25.90
2018-09-06T16:36:44.191Z,25.90
2018-09-06T16:39:10.493Z,25.90
2018-09-06T16:41:36.777Z,25.90
2018-09-06T16:44:03.107Z,25.80
2018-09-06T16:46:30.157Z,25.60
2018-09-06T16:48:56.454Z,25.60
2018-09-06T16:51:22.733Z,25.50
2018-09-06T16:53:49.000Z,25.50
2018-09-06T16:56:15.758Z,25.50
2018-09-06T16:58:42.119Z,25.50
2018-09-06T17:01:08.507Z,25.40
2018-09-06T17:03:35.485Z,25.30
2018-09-06T17:06:01.863Z,25.30
2018-09-06T17:08:31.287Z,25.20
2018-09-06T17:10:57.757Z,25.20
2018-09-06T17:13:24.031Z,25.10
2018-09-06T17:15:51.122Z,25.00
2018-09-06T17:18:17.408Z,25.00
2018-09-06T17:20:44.402Z,24.90
2018-09-06T17:23:11.305Z,24.80
2018-09-06T17:25:37.716Z,24.90
2018-09-06T17:28:03.974Z,24.80
2018-09-06T17:30:31.497Z,24.80
2018-09-06T17:33:05.034Z,24.70
2018-09-06T17:35:41.770Z,24.70
2018-09-06T17:38:12.984Z,24.70
2018-09-06T17:40:46.220Z,24.60
2018-09-06T17:43:23.053Z,24.60
2018-09-06T17:45:56.280Z,24.50
2018-09-06T17:48:30.228Z,24.50
2018-09-06T17:51:03.661Z,24.40
2018-09-06T17:53:39.276Z,24.30
2018-09-06T17:56:11.200Z,24.20
2018-09-06T17:58:44.778Z,24.20
2018-09-06T18:01:18.444Z,24.10
2018-09-06T18:03:56.378Z,24.00
2018-09-06T18:06:27.801Z,24.00
2018-09-06T18:08:59.660Z,24.00
2018-09-06T18:11:31.715Z,23.90
2018-09-06T18:14:03.189Z,23.80
2018-09-06T18:16:38.736Z,23.80
2018-09-06T18:19:07.153Z,23.80
2018-09-06T18:21:35.800Z,23.70
2018-09-06T18:24:08.402Z,23.70
2018-09-06T18:26:43.325Z,23.70
2018-09-06T18:29:14.001Z,23.70
2018-09-06T18:31:51.979Z,23.70
2018-09-06T18:34:27.778Z,23.70
2018-09-06T18:37:01.197Z,23.50
2018-09-06T18:39:39.792Z,23.50
2018-09-06T18:42:16.455Z,23.50
2018-09-06T18:44:53.732Z,23.50
2018-09-06T18:47:23.073Z,23.40
2018-09-06T18:49:53.027Z,23.30
2018-09-06T18:52:22.124Z,23.10
2018-09-06T18:54:52.013Z,22.90
2018-09-06T18:57:20.187Z,22.80
2018-09-06T18:59:49.698Z,22.70
2018-09-06T19:02:19.929Z,22.60
2018-09-06T19:04:53.529Z,22.60
2018-09-06T19:07:23.186Z,22.50
2018-09-06T19:09:51.414Z,22.40
2018-09-06T19:12:21.831Z,22.40
2018-09-06T19:14:52.514Z,22.30
2018-09-06T19:17:21.558Z,22.30
2018-09-06T19:19:52.505Z,22.10
2018-09-06T19:22:25.592Z,21.90
2018-09-06T19:25:00.665Z,21.90
2018-09-06T19:27:34.880Z,21.90
2018-09-06T19:30:08.987Z,21.90
2018-09-06T19:32:39.694Z,21.90
2018-09-06T19:35:12.472Z,22.00
2018-09-06T19:37:41.248Z,22.00
2018-09-06T19:40:11.821Z,21.90
2018-09-06T19:42:41.336Z,22.00
2018-09-06T19:45:17.512Z,21.90
2018-09-06T19:47:44.803Z,21.80
2018-09-06T19:52:49.722Z,21.80
2018-09-06T19:55:21.531Z,21.80
2018-09-06T19:57:48.029Z,21.80
2018-09-06T20:00:14.321Z,21.80
2018-09-06T20:02:41.508Z,21.90
2018-09-06T20:05:07.826Z,21.90
2018-09-06T20:07:34.059Z,21.80
2018-09-06T20:10:00.342Z,21.70
2018-09-06T20:12:26.636Z,21.60
2018-09-06T20:14:53.663Z,21.50
2018-09-06T20:17:19.966Z,21.50
2018-09-06T20:19:46.200Z,21.50
2018-09-06T20:22:14.333Z,21.50
2018-09-06T20:24:40.655Z,21.40
2018-09-06T20:27:06.920Z,21.40
2018-09-06T20:29:35.393Z,21.30
2018-09-06T20:32:02.509Z,21.30
2018-09-06T20:34:30.355Z,21.20
2018-09-06T20:36:57.460Z,21.20
2018-09-06T20:39:26.010Z,21.20
2018-09-06T20:41:53.059Z,21.10
2018-09-06T20:44:20.033Z,21.10
2018-09-06T20:46:47.344Z,21.10
2018-09-06T20:49:14.177Z,21.10
2018-09-06T20:51:40.406Z,21.20
2018-09-06T20:54:06.677Z,21.20
2018-09-06T20:56:33.007Z,21.20
2018-09-06T20:58:59.266Z,21.20
2018-09-06T21:01:26.258Z,21.20
2018-09-06T21:03:52.532Z,21.20
2018-09-06T21:06:19.520Z,21.30
2018-09-06T21:08:47.316Z,21.20
2018-09-06T21:11:13.583Z,21.30
2018-09-06T21:13:41.130Z,21.10
2018-09-06T21:16:08.901Z,21.10
2018-09-06T21:18:35.921Z,21.10
2018-09-06T21:21:02.324Z,21.10
2018-09-06T21:23:28.645Z,21.10
2018-09-06T21:25:59.058Z,21.10
2018-09-06T21:28:25.393Z,21.00
2018-09-06T21:30:51.650Z,21.00
2018-09-06T21:33:18.638Z,21.00
2018-09-06T21:35:45.451Z,21.00
2018-09-06T21:38:11.759Z,21.00
2018-09-06T21:40:39.160Z,21.00
2018-09-06T21:43:06.202Z,21.00
2018-09-06T21:45:34.023Z,21.00
2018-09-06T21:48:00.306Z,21.00
2018-09-06T21:50:26.611Z,20.90
2018-09-06T21:52:52.893Z,21.00
2018-09-06T21:55:19.150Z,21.00
2018-09-06T21:57:45.548Z,20.90
2018-09-06T22:00:11.841Z,20.90
2018-09-06T22:02:38.134Z,20.90
2018-09-06T22:05:05.174Z,20.80
2018-09-06T22:07:31.516Z,20.80
2018-09-06T22:09:58.601Z,20.90
2018-09-06T22:12:24.843Z,20.80
2018-09-06T22:14:51.129Z,20.90
2018-09-06T22:17:19.416Z,20.90
2018-09-06T22:19:46.401Z,20.80
2018-09-06T22:22:12.735Z,20.80
2018-09-06T22:24:42.026Z,20.80
2018-09-06T22:30:07.545Z,20.80
2018-09-06T22:32:33.825Z,20.80
2018-09-06T22:35:00.776Z,20.80
2018-09-06T22:37:28.931Z,20.80
2018-09-06T22:39:57.082Z,20.80
2018-09-06T22:42:23.861Z,20.80
2018-09-06T22:44:50.193Z,20.80
2018-09-06T22:47:16.440Z,20.70
2018-09-06T22:49:44.406Z,20.70
2018-09-06T22:52:10.674Z,20.70
2018-09-06T22:54:36.951Z,20.60
2018-09-06T22:57:03.280Z,20.70
2018-09-06T22:59:30.202Z,20.60
2018-09-06T23:01:59.891Z,20.60
2018-09-06T23:04:26.201Z,20.60
2018-09-06T23:06:53.214Z,20.40
2018-09-06T23:09:19.465Z,20.40
2018-09-06T23:11:45.735Z,20.40
2018-09-06T23:14:12.742Z,20.30
2018-09-06T23:16:39.114Z,20.30
2018-09-06T23:19:05.371Z,20.20
2018-09-06T23:21:31.619Z,20.20
2018-09-06T23:23:57.907Z,20.20
2018-09-06T23:26:24.165Z,20.20
2018-09-06T23:28:50.476Z,20.00
2018-09-06T23:31:16.774Z,20.00
2018-09-06T23:33:43.013Z,19.90
2018-09-06T23:36:09.297Z,19.80
2018-09-06T23:38:35.618Z,19.80
2018-09-06T23:41:01.908Z,19.80
2018-09-06T23:43:28.198Z,19.80
2018-09-06T23:45:54.462Z,19.80
2018-09-06T23:48:21.442Z,19.70
2018-09-06T23:50:48.493Z,19.80
2018-09-06T23:53:15.509Z,19.70
2018-09-06T23:55:41.749Z,19.70
2018-09-06T23:58:08.045Z,19.70
